EZY816 EDDF-EGCC
Flight info
| Callsign | EZY816 |
|---|---|
| Flight time | 1h 13m |
| Altitude | 34000 |
| Route | OBOKA2E OBOKA Z29 TORNU DCT BATAK DCT GALSO Q63 ERING L179 LAM UN57 WELIN T420 ELVOS |
| Aircraft | A320/M-SDE3FGHIRWY/LB1 |
Departure
| Time | 2026-05-05 01:34 |
|---|---|
| Airport | Frankfurt Main Airport (EDDF) |
Arrival
| Time | 2026-05-05 02:47 |
|---|---|
| Airport | Manchester Airport (EGCC) |
| Time | Latitude | Longitude | Altitude | Speed | Heading |
|---|---|---|---|---|---|
| 2026-05-05 00:49 | 50.04856 | 8.57522 | 356 ft | 0 kts | 203° |
| 2026-05-05 01:26 | 50.04873 | 8.57533 | 356 ft | 3 kts | 200° |
| 2026-05-05 01:26 | 50.04894 | 8.57544 | 359 ft | 3 kts | 191° |
| 2026-05-05 01:26 | 50.04916 | 8.57547 | 356 ft | 3 kts | 168° |
| 2026-05-05 01:26 | 50.04933 | 8.57535 | 356 ft | 3 kts | 117° |
| 2026-05-05 01:27 | 50.04934 | 8.57532 | 360 ft | 0 kts | 114° |
| 2026-05-05 01:28 | 50.04916 | 8.57594 | 360 ft | 9 kts | 114° |
| 2026-05-05 01:28 | 50.04893 | 8.57676 | 364 ft | 9 kts | 113° |
| 2026-05-05 01:29 | 50.04863 | 8.57783 | 365 ft | 13 kts | 113° |
| 2026-05-05 01:29 | 50.04813 | 8.57898 | 361 ft | 13 kts | 148° |
| 2026-05-05 01:29 | 50.04733 | 8.57946 | 359 ft | 11 kts | 159° |
| 2026-05-05 01:29 | 50.04663 | 8.57987 | 358 ft | 10 kts | 159° |
| 2026-05-05 01:30 | 50.04597 | 8.58025 | 364 ft | 10 kts | 161° |
| 2026-05-05 01:30 | 50.04540 | 8.57999 | 363 ft | 7 kts | 229° |
| 2026-05-05 01:30 | 50.04517 | 8.57915 | 368 ft | 10 kts | 250° |
| 2026-05-05 01:30 | 50.04488 | 8.57791 | 364 ft | 13 kts | 250° |
| 2026-05-05 01:31 | 50.04456 | 8.57656 | 368 ft | 13 kts | 250° |
| 2026-05-05 01:31 | 50.04422 | 8.57510 | 364 ft | 16 kts | 250° |
| 2026-05-05 01:31 | 50.04381 | 8.57345 | 364 ft | 16 kts | 249° |
| 2026-05-05 01:31 | 50.04343 | 8.57185 | 365 ft | 15 kts | 249° |
| 2026-05-05 01:32 | 50.04319 | 8.57086 | 361 ft | 14 kts | 250° |
| 2026-05-05 01:32 | 50.04284 | 8.56940 | 363 ft | 14 kts | 249° |
| 2026-05-05 01:32 | 50.04254 | 8.56812 | 359 ft | 12 kts | 249° |
| 2026-05-05 01:32 | 50.04223 | 8.56683 | 357 ft | 17 kts | 250° |
| 2026-05-05 01:33 | 50.04166 | 8.56445 | 361 ft | 29 kts | 249° |
| 2026-05-05 01:33 | 50.04086 | 8.56110 | 354 ft | 37 kts | 249° |
| 2026-05-05 01:33 | 50.03992 | 8.55715 | 358 ft | 39 kts | 249° |
| 2026-05-05 01:33 | 50.03897 | 8.55320 | 349 ft | 39 kts | 250° |
| 2026-05-05 01:34 | 50.03773 | 8.54782 | 356 ft | 87 kts | 249° |
| 2026-05-05 01:34 | 50.03458 | 8.53512 | 363 ft | 158 kts | 253° |
| 2026-05-05 01:34 | 50.03556 | 8.51685 | 813 ft | 182 kts | 300° |
| 2026-05-05 01:34 | 50.04316 | 8.49912 | 1272 ft | 216 kts | 307° |
| 2026-05-05 01:35 | 50.05299 | 8.47827 | 1517 ft | 261 kts | 308° |
| 2026-05-05 01:35 | 50.06459 | 8.45386 | 1892 ft | 298 kts | 308° |
| 2026-05-05 01:35 | 50.07757 | 8.42658 | 2383 ft | 327 kts | 307° |
| 2026-05-05 01:35 | 50.09166 | 8.39701 | 2905 ft | 351 kts | 307° |
| 2026-05-05 01:36 | 50.10685 | 8.36612 | 3568 ft | 365 kts | 308° |
| 2026-05-05 01:36 | 50.12299 | 8.33508 | 4497 ft | 371 kts | 310° |
| 2026-05-05 01:36 | 50.13980 | 8.30423 | 5463 ft | 375 kts | 311° |
| 2026-05-05 01:36 | 50.15666 | 8.27396 | 6560 ft | 371 kts | 311° |
| 2026-05-05 01:37 | 50.17323 | 8.24427 | 8174 ft | 353 kts | 310° |
| 2026-05-05 01:37 | 50.18891 | 8.21603 | 9835 ft | 335 kts | 309° |
| 2026-05-05 01:37 | 50.20397 | 8.18870 | 11171 ft | 336 kts | 308° |
| 2026-05-05 01:37 | 50.21933 | 8.16055 | 12069 ft | 344 kts | 308° |
| 2026-05-05 01:38 | 50.23501 | 8.13165 | 12651 ft | 352 kts | 308° |
| 2026-05-05 01:38 | 50.25097 | 8.10215 | 13272 ft | 358 kts | 307° |
| 2026-05-05 01:38 | 50.26659 | 8.07325 | 13923 ft | 361 kts | 307° |
| 2026-05-05 01:38 | 50.28308 | 8.04276 | 14592 ft | 364 kts | 307° |
| 2026-05-05 01:39 | 50.29950 | 8.01241 | 15237 ft | 367 kts | 307° |
| 2026-05-05 01:39 | 50.31604 | 7.98175 | 15867 ft | 370 kts | 307° |
| 2026-05-05 01:39 | 50.33271 | 7.95083 | 16490 ft | 373 kts | 307° |
| 2026-05-05 01:39 | 50.34951 | 7.91970 | 17098 ft | 375 kts | 306° |
| 2026-05-05 01:40 | 50.36641 | 7.88830 | 17672 ft | 378 kts | 306° |
| 2026-05-05 01:40 | 50.38345 | 7.85659 | 18221 ft | 382 kts | 306° |
| 2026-05-05 01:40 | 50.40062 | 7.82463 | 18773 ft | 385 kts | 306° |
| 2026-05-05 01:40 | 50.41793 | 7.79238 | 19304 ft | 388 kts | 306° |
| 2026-05-05 01:41 | 50.43513 | 7.76027 | 19815 ft | 391 kts | 306° |
| 2026-05-05 01:41 | 50.45270 | 7.72743 | 20307 ft | 394 kts | 306° |
| 2026-05-05 01:41 | 50.47039 | 7.69435 | 20770 ft | 397 kts | 306° |
| 2026-05-05 01:41 | 50.48823 | 7.66095 | 21246 ft | 400 kts | 306° |
| 2026-05-05 01:42 | 50.50618 | 7.62726 | 21705 ft | 403 kts | 306° |
| 2026-05-05 01:42 | 50.52424 | 7.59330 | 22162 ft | 406 kts | 306° |
| 2026-05-05 01:42 | 50.54238 | 7.55914 | 22600 ft | 408 kts | 306° |
| 2026-05-05 01:42 | 50.56247 | 7.52690 | 22857 ft | 421 kts | 315° |
| 2026-05-05 01:43 | 50.58645 | 7.49920 | 22985 ft | 435 kts | 324° |
| 2026-05-05 01:43 | 50.61244 | 7.47382 | 23113 ft | 444 kts | 324° |
| 2026-05-05 01:43 | 50.63880 | 7.44751 | 23238 ft | 452 kts | 324° |
| 2026-05-05 01:43 | 50.66541 | 7.42035 | 23364 ft | 460 kts | 323° |
| 2026-05-05 01:44 | 50.69240 | 7.39249 | 23489 ft | 467 kts | 323° |
| 2026-05-05 01:44 | 50.71853 | 7.36177 | 23618 ft | 469 kts | 315° |
| 2026-05-05 01:44 | 50.74161 | 7.32535 | 23747 ft | 471 kts | 307° |
| 2026-05-05 01:44 | 50.76119 | 7.28392 | 23938 ft | 470 kts | 298° |
| 2026-05-05 01:45 | 50.77685 | 7.23950 | 24253 ft | 467 kts | 294° |
| 2026-05-05 01:45 | 50.79176 | 7.19391 | 24610 ft | 467 kts | 294° |
| 2026-05-05 01:45 | 50.80665 | 7.14844 | 24996 ft | 465 kts | 294° |
| 2026-05-05 01:45 | 50.82148 | 7.10303 | 25408 ft | 464 kts | 293° |
| 2026-05-05 01:46 | 50.83622 | 7.05774 | 25815 ft | 462 kts | 293° |
| 2026-05-05 01:46 | 50.85090 | 7.01242 | 26202 ft | 461 kts | 293° |
| 2026-05-05 01:46 | 50.86546 | 6.96732 | 26594 ft | 460 kts | 293° |
| 2026-05-05 01:46 | 50.87995 | 6.92228 | 26989 ft | 458 kts | 292° |
| 2026-05-05 01:47 | 50.89435 | 6.87745 | 27370 ft | 457 kts | 292° |
| 2026-05-05 01:47 | 50.90872 | 6.83265 | 27762 ft | 455 kts | 292° |
| 2026-05-05 01:47 | 50.92305 | 6.78794 | 28145 ft | 454 kts | 292° |
| 2026-05-05 01:47 | 50.93730 | 6.74342 | 28533 ft | 452 kts | 292° |
| 2026-05-05 01:48 | 50.95149 | 6.69901 | 28906 ft | 451 kts | 292° |
| 2026-05-05 01:48 | 50.96562 | 6.65466 | 29273 ft | 450 kts | 292° |
| 2026-05-05 01:48 | 50.97970 | 6.61036 | 29628 ft | 449 kts | 292° |
| 2026-05-05 01:48 | 50.99367 | 6.56636 | 29990 ft | 448 kts | 291° |
| 2026-05-05 01:49 | 51.00767 | 6.52219 | 30355 ft | 447 kts | 291° |
| 2026-05-05 01:49 | 51.02158 | 6.47818 | 30699 ft | 446 kts | 291° |
| 2026-05-05 01:49 | 51.03547 | 6.43414 | 31042 ft | 444 kts | 291° |
| 2026-05-05 01:49 | 51.04910 | 6.39087 | 31356 ft | 444 kts | 291° |
| 2026-05-05 01:50 | 51.06291 | 6.34694 | 31682 ft | 443 kts | 291° |
| 2026-05-05 01:50 | 51.07664 | 6.30322 | 32000 ft | 442 kts | 291° |
| 2026-05-05 01:50 | 51.09036 | 6.25950 | 32319 ft | 441 kts | 291° |
| 2026-05-05 01:50 | 51.10401 | 6.21586 | 32646 ft | 440 kts | 291° |
| 2026-05-05 01:51 | 51.11760 | 6.17223 | 32955 ft | 439 kts | 291° |
| 2026-05-05 01:51 | 51.13112 | 6.12873 | 33277 ft | 438 kts | 290° |
| 2026-05-05 01:51 | 51.14243 | 6.08415 | 33576 ft | 431 kts | 282° |
| 2026-05-05 01:51 | 51.15025 | 6.03821 | 33851 ft | 429 kts | 279° |
| 2026-05-05 01:52 | 51.15770 | 5.99233 | 34145 ft | 428 kts | 279° |
| 2026-05-05 01:52 | 51.16514 | 5.94637 | 34414 ft | 428 kts | 280° |
| 2026-05-05 01:52 | 51.17252 | 5.90042 | 34652 ft | 428 kts | 280° |
| 2026-05-05 01:52 | 51.18037 | 5.85459 | 34888 ft | 430 kts | 285° |
| 2026-05-05 01:53 | 51.19217 | 5.81042 | 35096 ft | 436 kts | 294° |
| 2026-05-05 01:53 | 51.20774 | 5.76859 | 35298 ft | 439 kts | 297° |
| 2026-05-05 01:53 | 51.22341 | 5.72750 | 35496 ft | 439 kts | 297° |
| 2026-05-05 01:53 | 51.23919 | 5.68582 | 35709 ft | 439 kts | 297° |
| 2026-05-05 01:54 | 51.25491 | 5.64406 | 35883 ft | 440 kts | 297° |
| 2026-05-05 01:54 | 51.27068 | 5.60195 | 35941 ft | 444 kts | 296° |
| 2026-05-05 01:54 | 51.30261 | 5.51634 | 35944 ft | 453 kts | 297° |
| 2026-05-05 01:55 | 51.33533 | 5.42881 | 35944 ft | 463 kts | 297° |
| 2026-05-05 01:55 | 51.36869 | 5.33949 | 35942 ft | 472 kts | 297° |
| 2026-05-05 01:56 | 51.38546 | 5.29432 | 36154 ft | 470 kts | 297° |
| 2026-05-05 01:56 | 51.40185 | 5.25026 | 36602 ft | 464 kts | 297° |
| 2026-05-05 01:56 | 51.41829 | 5.20622 | 37051 ft | 457 kts | 297° |
| 2026-05-05 01:56 | 51.43447 | 5.16294 | 37504 ft | 449 kts | 297° |
| 2026-05-05 01:57 | 51.45046 | 5.12025 | 37957 ft | 442 kts | 297° |
| 2026-05-05 01:57 | 51.46613 | 5.07820 | 38046 ft | 442 kts | 297° |
| 2026-05-05 01:57 | 51.48162 | 5.03569 | 37913 ft | 439 kts | 296° |
| 2026-05-05 01:57 | 51.49691 | 4.99335 | 37941 ft | 439 kts | 296° |
| 2026-05-05 01:58 | 51.52751 | 4.90844 | 37942 ft | 439 kts | 297° |
| 2026-05-05 01:58 | 51.55810 | 4.82340 | 37949 ft | 438 kts | 293° |
| 2026-05-05 01:59 | 51.57737 | 4.73179 | 37957 ft | 431 kts | 277° |
| 2026-05-05 01:59 | 51.58725 | 4.63733 | 37954 ft | 431 kts | 277° |
| 2026-05-05 02:00 | 51.59723 | 4.54220 | 37954 ft | 432 kts | 277° |
| 2026-05-05 02:00 | 51.60720 | 4.44700 | 37948 ft | 432 kts | 277° |
| 2026-05-05 02:01 | 51.61716 | 4.35146 | 37955 ft | 433 kts | 277° |
| 2026-05-05 02:01 | 51.62699 | 4.25592 | 37957 ft | 433 kts | 277° |
| 2026-05-05 02:02 | 51.63678 | 4.16022 | 37958 ft | 433 kts | 277° |
| 2026-05-05 02:02 | 51.64652 | 4.06456 | 37964 ft | 433 kts | 277° |
| 2026-05-05 02:03 | 51.65609 | 3.96879 | 37970 ft | 433 kts | 277° |
| 2026-05-05 02:03 | 51.66562 | 3.87285 | 37971 ft | 433 kts | 277° |
| 2026-05-05 02:04 | 51.67509 | 3.77700 | 37979 ft | 434 kts | 276° |
| 2026-05-05 02:04 | 51.68446 | 3.68089 | 37981 ft | 434 kts | 276° |
| 2026-05-05 02:05 | 51.69380 | 3.58479 | 37986 ft | 434 kts | 276° |
| 2026-05-05 02:05 | 51.70293 | 3.48917 | 37991 ft | 434 kts | 276° |
| 2026-05-05 02:06 | 51.71211 | 3.39276 | 37995 ft | 435 kts | 276° |
| 2026-05-05 02:06 | 51.72122 | 3.29633 | 37998 ft | 435 kts | 276° |
| 2026-05-05 02:07 | 51.72999 | 3.19977 | 37998 ft | 434 kts | 272° |
| 2026-05-05 02:07 | 51.72685 | 3.10322 | 37992 ft | 431 kts | 260° |
| 2026-05-05 02:08 | 51.71848 | 3.00743 | 37991 ft | 432 kts | 260° |
| 2026-05-05 02:08 | 51.71018 | 2.91140 | 37992 ft | 432 kts | 261° |
| 2026-05-05 02:09 | 51.70181 | 2.81535 | 37990 ft | 432 kts | 260° |
| 2026-05-05 02:09 | 51.69327 | 2.71941 | 37990 ft | 433 kts | 260° |
| 2026-05-05 02:10 | 51.68471 | 2.62395 | 37989 ft | 434 kts | 260° |
| 2026-05-05 02:10 | 51.67612 | 2.52763 | 37991 ft | 434 kts | 260° |
| 2026-05-05 02:11 | 51.66737 | 2.43139 | 37990 ft | 434 kts | 260° |
| 2026-05-05 02:11 | 51.65847 | 2.33507 | 37993 ft | 435 kts | 260° |
| 2026-05-05 02:12 | 51.64501 | 2.19057 | 38003 ft | 435 kts | 260° |
| 2026-05-05 02:13 | 51.63591 | 2.09416 | 38006 ft | 435 kts | 260° |
| 2026-05-05 02:13 | 51.62698 | 1.99783 | 38005 ft | 435 kts | 260° |
| 2026-05-05 02:14 | 51.61811 | 1.90205 | 38002 ft | 435 kts | 260° |
| 2026-05-05 02:14 | 51.60908 | 1.80576 | 38000 ft | 435 kts | 260° |
| 2026-05-05 02:15 | 51.59988 | 1.70889 | 38002 ft | 436 kts | 260° |
| 2026-05-05 02:15 | 51.59186 | 1.61231 | 38007 ft | 437 kts | 266° |
| 2026-05-05 02:16 | 51.59502 | 1.51471 | 38012 ft | 438 kts | 272° |
| 2026-05-05 02:16 | 51.59922 | 1.41699 | 38014 ft | 438 kts | 272° |
| 2026-05-05 02:17 | 51.60316 | 1.31975 | 38016 ft | 438 kts | 272° |
| 2026-05-05 02:17 | 51.60716 | 1.22184 | 38019 ft | 439 kts | 272° |
| 2026-05-05 02:18 | 51.61122 | 1.12374 | 38025 ft | 439 kts | 272° |
| 2026-05-05 02:18 | 51.61513 | 1.02557 | 38029 ft | 440 kts | 272° |
| 2026-05-05 02:19 | 51.61822 | 0.94398 | 38032 ft | 440 kts | 272° |
| 2026-05-05 02:19 | 51.62189 | 0.84565 | 38037 ft | 440 kts | 272° |
| 2026-05-05 02:20 | 51.62618 | 0.73121 | 37911 ft | 442 kts | 272° |
| 2026-05-05 02:20 | 51.62798 | 0.68197 | 37661 ft | 441 kts | 272° |
| 2026-05-05 02:20 | 51.62919 | 0.64872 | 37493 ft | 441 kts | 272° |
| 2026-05-05 02:20 | 51.63095 | 0.59933 | 37242 ft | 440 kts | 272° |
| 2026-05-05 02:21 | 51.63266 | 0.55086 | 36995 ft | 439 kts | 272° |
| 2026-05-05 02:21 | 51.63438 | 0.50176 | 36748 ft | 439 kts | 272° |
| 2026-05-05 02:21 | 51.63611 | 0.45264 | 36498 ft | 439 kts | 272° |
| 2026-05-05 02:21 | 51.63779 | 0.40358 | 36246 ft | 440 kts | 272° |
| 2026-05-05 02:22 | 51.63944 | 0.35426 | 36035 ft | 443 kts | 272° |
| 2026-05-05 02:22 | 51.64275 | 0.25464 | 36035 ft | 448 kts | 274° |
| 2026-05-05 02:23 | 51.65814 | 0.15766 | 36035 ft | 451 kts | 294° |
| 2026-05-05 02:23 | 51.69304 | 0.07449 | 36036 ft | 453 kts | 313° |
| 2026-05-05 02:24 | 51.73188 | 0.01100 | 36033 ft | 454 kts | 314° |
| 2026-05-05 02:24 | 51.77614 | -0.06182 | 36026 ft | 456 kts | 313° |
| 2026-05-05 02:25 | 51.82067 | -0.13565 | 36027 ft | 461 kts | 313° |
| 2026-05-05 02:25 | 51.86552 | -0.21002 | 36027 ft | 462 kts | 313° |
| 2026-05-05 02:26 | 51.90848 | -0.28154 | 36027 ft | 462 kts | 313° |
| 2026-05-05 02:26 | 51.95330 | -0.35624 | 36027 ft | 462 kts | 313° |
| 2026-05-05 02:27 | 51.99807 | -0.43109 | 36027 ft | 462 kts | 313° |
| 2026-05-05 02:27 | 52.04261 | -0.50578 | 36026 ft | 458 kts | 314° |
| 2026-05-05 02:28 | 52.08669 | -0.57991 | 36025 ft | 455 kts | 314° |
| 2026-05-05 02:28 | 52.13058 | -0.65414 | 36027 ft | 455 kts | 314° |
| 2026-05-05 02:29 | 52.17445 | -0.72842 | 36027 ft | 455 kts | 314° |
| 2026-05-05 02:29 | 52.21802 | -0.80242 | 36026 ft | 455 kts | 314° |
| 2026-05-05 02:30 | 52.26548 | -0.87051 | 36026 ft | 454 kts | 328° |
| 2026-05-05 02:30 | 52.31956 | -0.92416 | 35577 ft | 457 kts | 329° |
| 2026-05-05 02:30 | 52.34690 | -0.95134 | 34635 ft | 462 kts | 328° |
| 2026-05-05 02:31 | 52.37445 | -0.97890 | 33735 ft | 465 kts | 329° |
| 2026-05-05 02:31 | 52.40211 | -1.00656 | 32908 ft | 466 kts | 329° |
| 2026-05-05 02:31 | 52.42981 | -1.03429 | 32085 ft | 467 kts | 329° |
| 2026-05-05 02:31 | 52.45717 | -1.06174 | 31237 ft | 467 kts | 328° |
| 2026-05-05 02:32 | 52.48527 | -1.08994 | 30325 ft | 467 kts | 329° |
| 2026-05-05 02:32 | 52.51263 | -1.11744 | 29423 ft | 468 kts | 328° |
| 2026-05-05 02:32 | 52.54043 | -1.14542 | 28447 ft | 468 kts | 328° |
| 2026-05-05 02:32 | 52.56822 | -1.17342 | 27390 ft | 470 kts | 328° |
| 2026-05-05 02:33 | 52.59616 | -1.20162 | 26229 ft | 473 kts | 328° |
| 2026-05-05 02:33 | 52.62426 | -1.23002 | 24974 ft | 476 kts | 327° |
| 2026-05-05 02:33 | 52.65264 | -1.25872 | 23676 ft | 481 kts | 327° |
| 2026-05-05 02:33 | 52.68101 | -1.28750 | 22819 ft | 476 kts | 327° |
| 2026-05-05 02:34 | 52.70902 | -1.31597 | 22005 ft | 470 kts | 327° |
| 2026-05-05 02:34 | 52.73666 | -1.34410 | 21221 ft | 464 kts | 327° |
| 2026-05-05 02:34 | 52.76395 | -1.37191 | 20429 ft | 458 kts | 327° |
| 2026-05-05 02:34 | 52.79090 | -1.39931 | 19674 ft | 452 kts | 327° |
| 2026-05-05 02:35 | 52.81757 | -1.42645 | 18929 ft | 447 kts | 327° |
| 2026-05-05 02:35 | 52.84395 | -1.45342 | 18200 ft | 442 kts | 327° |
| 2026-05-05 02:35 | 52.86991 | -1.48005 | 17476 ft | 436 kts | 327° |
| 2026-05-05 02:35 | 52.89559 | -1.50641 | 16754 ft | 432 kts | 327° |
| 2026-05-05 02:36 | 52.92096 | -1.53247 | 16062 ft | 427 kts | 327° |
| 2026-05-05 02:36 | 52.94538 | -1.55760 | 15859 ft | 410 kts | 327° |
| 2026-05-05 02:36 | 52.96910 | -1.58205 | 15731 ft | 393 kts | 327° |
| 2026-05-05 02:36 | 52.99183 | -1.60552 | 15605 ft | 377 kts | 326° |
| 2026-05-05 02:37 | 53.01367 | -1.62813 | 15479 ft | 364 kts | 326° |
| 2026-05-05 02:37 | 53.03476 | -1.64998 | 15355 ft | 351 kts | 326° |
| 2026-05-05 02:37 | 53.05422 | -1.67301 | 15229 ft | 336 kts | 316° |
| 2026-05-05 02:37 | 53.06991 | -1.70085 | 15103 ft | 324 kts | 309° |
| 2026-05-05 02:38 | 53.08429 | -1.72886 | 14976 ft | 314 kts | 309° |
| 2026-05-05 02:38 | 53.09840 | -1.75617 | 14730 ft | 309 kts | 309° |
| 2026-05-05 02:38 | 53.11236 | -1.78315 | 14402 ft | 306 kts | 309° |
| 2026-05-05 02:38 | 53.12622 | -1.80995 | 14071 ft | 305 kts | 309° |
| 2026-05-05 02:39 | 53.13994 | -1.83656 | 13819 ft | 300 kts | 309° |
| 2026-05-05 02:39 | 53.15344 | -1.86281 | 13555 ft | 297 kts | 309° |
| 2026-05-05 02:39 | 53.16680 | -1.88882 | 13246 ft | 295 kts | 309° |
| 2026-05-05 02:39 | 53.18003 | -1.91468 | 12810 ft | 291 kts | 309° |
| 2026-05-05 02:40 | 53.19312 | -1.94029 | 12194 ft | 289 kts | 309° |
| 2026-05-05 02:40 | 53.20610 | -1.96567 | 11646 ft | 284 kts | 309° |
| 2026-05-05 02:40 | 53.21880 | -1.99049 | 11048 ft | 282 kts | 309° |
| 2026-05-05 02:40 | 53.23326 | -2.01255 | 10379 ft | 284 kts | 327° |
| 2026-05-05 02:41 | 53.25156 | -2.02465 | 9751 ft | 285 kts | 348° |
| 2026-05-05 02:41 | 53.27131 | -2.02538 | 9111 ft | 285 kts | 3° |
| 2026-05-05 02:41 | 53.29106 | -2.02206 | 8456 ft | 284 kts | 8° |
| 2026-05-05 02:41 | 53.31042 | -2.01598 | 7833 ft | 282 kts | 10° |
| 2026-05-05 02:42 | 53.32952 | -2.00951 | 7216 ft | 279 kts | 10° |
| 2026-05-05 02:42 | 53.34817 | -2.00311 | 6607 ft | 276 kts | 11° |
| 2026-05-05 02:42 | 53.36686 | -1.99681 | 5980 ft | 272 kts | 8° |
| 2026-05-05 02:42 | 53.38557 | -1.99592 | 5362 ft | 267 kts | 357° |
| 2026-05-05 02:43 | 53.40346 | -1.99722 | 5103 ft | 250 kts | 356° |
| 2026-05-05 02:43 | 53.42045 | -1.99855 | 4777 ft | 237 kts | 356° |
| 2026-05-05 02:43 | 53.43665 | -2.00032 | 4360 ft | 230 kts | 349° |
| 2026-05-05 02:43 | 53.45072 | -2.01185 | 3988 ft | 227 kts | 315° |
| 2026-05-05 02:44 | 53.45845 | -2.03459 | 3560 ft | 233 kts | 280° |
| 2026-05-05 02:44 | 53.45594 | -2.06126 | 3192 ft | 238 kts | 242° |
| 2026-05-05 02:44 | 53.44610 | -2.08370 | 2882 ft | 238 kts | 231° |
| 2026-05-05 02:44 | 53.43556 | -2.10505 | 2569 ft | 234 kts | 231° |
| 2026-05-05 02:45 | 53.42555 | -2.12568 | 2265 ft | 222 kts | 232° |
| 2026-05-05 02:45 | 53.41612 | -2.14533 | 1989 ft | 210 kts | 231° |
| 2026-05-05 02:45 | 53.40735 | -2.16360 | 1713 ft | 193 kts | 231° |
| 2026-05-05 02:45 | 53.39930 | -2.18034 | 1461 ft | 177 kts | 231° |
| 2026-05-05 02:46 | 53.39192 | -2.19568 | 1265 ft | 160 kts | 231° |
| 2026-05-05 02:46 | 53.38532 | -2.20955 | 1016 ft | 148 kts | 232° |
| 2026-05-05 02:46 | 53.37886 | -2.22315 | 826 ft | 149 kts | 230° |
| 2026-05-05 02:46 | 53.37244 | -2.23623 | 640 ft | 146 kts | 232° |
| 2026-05-05 02:47 | 53.36609 | -2.24939 | 408 ft | 144 kts | 231° |
| 2026-05-05 02:47 | 53.35997 | -2.26211 | 264 ft | 133 kts | 230° |
| 2026-05-05 02:47 | 53.35514 | -2.27203 | 250 ft | 86 kts | 231° |
| 2026-05-05 02:47 | 53.35270 | -2.27786 | 237 ft | 42 kts | 250° |
| 2026-05-05 02:48 | 53.35237 | -2.28078 | 231 ft | 7 kts | 261° |
| 2026-05-05 02:48 | 53.35235 | -2.28099 | 231 ft | 5 kts | 261° |
| 2026-05-05 02:48 | 53.35268 | -2.28194 | 232 ft | 11 kts | 355° |
| 2026-05-05 02:48 | 53.35332 | -2.28123 | 235 ft | 13 kts | 44° |
| 2026-05-05 02:49 | 53.35429 | -2.27970 | 237 ft | 22 kts | 38° |
| 2026-05-05 02:49 | 53.35578 | -2.27906 | 238 ft | 23 kts | 7° |
| 2026-05-05 02:49 | 53.35691 | -2.27754 | 245 ft | 20 kts | 50° |
| 2026-05-05 02:49 | 53.35792 | -2.27649 | 253 ft | 15 kts | 7° |
| 2026-05-05 02:50 | 53.35866 | -2.27633 | 255 ft | 9 kts | 6° |
| 2026-05-05 02:50 | 53.35884 | -2.27558 | 255 ft | 5 kts | 107° |
| 2026-05-05 02:50 | 53.35881 | -2.27527 | 255 ft | 0 kts | 95° |